Del Norte, CO (81132)

11:31 PM MST on December 03, 2016 (GMT -0700)
North West of | | Change Station

Elev 7720 ft 37.65 °N, 106.18 °W | Updated 5 seconds ago

Clear
Clear
9.9 °F
Feels Like 3 °F
N
4.0
Wind Variable Wind from SSE
Gusts 5.0 mph

Today
High -- | Low -- °F
--% Chance of Precip.
Yesterday
High -- | Low -- °F
Precip. -- in
Pressure 30.10 in
Visibility 10.0 miles
Clouds Clear
Windchill 3 °F
Dew Point 4 °F
Humidity 77%
Rainfall 0.00 in
Snow Depth Not available.
7:04 AM 4:46 PM
Waxing Crescent, 20% visible
METAR K04V 040609Z AUTO 33012KT 10SM CLR M07/M15 A3010 RMK AO2
Pressure 30.10 in
Visibility 10.0 miles
Clouds Clear
Windchill 3 °F
Dew Point 4 °F
Humidity 77%
Rainfall 0.00 in
Snow Depth Not available.
7:04 AM 4:46 PM
Waxing Crescent, 20% visible
METAR K04V 040609Z AUTO 33012KT 10SM CLR M07/M15 A3010 RMK AO2

10-Day Weather Forecast

Almanac

Astronomy

Dec. 03, 2016 Rise Set
Actual Time
Civil Twilight
Nautical Twilight
Astronomical Twilight
Moon
Length of Visible Light
Length of Day
Tomorrow will be .
, % of the Moon is Illuminated

Today's Extremes

State Highs State Lows

Community

WunderPhotos

Upload Photos

1,955,588 photos uploaded!

WunderBlog® & News

Nearby

Air Quality

  Air Quality AQ Index Pollutant
Not available.

Snow Depth

Station Depth Elevation

Earthquake Activity

City Distance Mag. Time & Date
Minimum magnitude displayed is 2.5.

Coastal Water Temperatures

Place Temperature

Stations

Nearby Weather Stations

Station Location Temp. Windchill Dew Point Humidity Wind Precip. Elev Updated Type
                   

Watches & Warnings

There are currently no watches in effect.